Time;durP1;ratioP1;P1;durP2;ratioP2;P2;SDS_P1;SDS_P2;PMS_P1;PMS_P2;Temp;Humidity;BMP_temperature;BMP_pressure;BME280_temperature;BME280_humidity;BME280_pressure;Samples;Min_cycle;Max_cycle;Signal;HPM_P1;HPM_P2
2022/11/09 00:00:05;;;;;;;27.70;3.40;;;12.60;99.90;;;;;;5042318;28;20231;-87
2022/11/09 00:02:32;;;;;;;16.23;2.50;;;12.60;99.90;;;;;;5034338;28;20586;-86
2022/11/09 00:05:00;;;;;;;8.47;2.40;;;12.60;99.90;;;;;;5035960;28;20203;-87
2022/11/09 00:07:29;;;;;;;13.40;2.33;;;12.60;99.90;;;;;;5035083;28;20293;-87
2022/11/09 00:09:56;;;;;;;12.70;2.93;;;12.60;99.90;;;;;;5034197;28;20217;-87
2022/11/09 00:12:23;;;;;;;8.93;2.50;;;12.60;99.90;;;;;;5034451;28;20199;-87
2022/11/09 00:14:49;;;;;;;13.73;2.63;;;12.60;99.90;;;;;;5034490;28;20313;-87
2022/11/09 00:17:16;;;;;;;10.13;2.70;;;12.60;99.90;;;;;;5034689;28;20213;-86
2022/11/09 00:19:43;;;;;;;12.53;2.37;;;12.60;99.90;;;;;;5034483;28;20340;-87
2022/11/09 00:22:12;;;;;;;9.07;2.50;;;12.60;99.90;;;;;;5045836;28;20212;-84
2022/11/09 00:24:39;;;;;;;11.00;2.73;;;12.60;99.90;;;;;;5054174;28;20255;-87
2022/11/09 00:27:05;;;;;;;12.13;2.77;;;12.60;99.90;;;;;;5048000;28;20225;-86
2022/11/09 00:29:32;;;;;;;9.83;2.43;;;12.60;99.90;;;;;;5054587;28;20304;-88
2022/11/09 00:31:59;;;;;;;10.73;2.43;;;12.60;99.90;;;;;;5052031;22;20238;-87
2022/11/09 00:34:26;;;;;;;9.83;2.97;;;12.50;99.90;;;;;;5014513;28;20565;-86
2022/11/09 00:36:53;;;;;;;11.27;2.30;;;12.50;99.90;;;;;;5027664;28;20495;-87
2022/11/09 00:39:21;;;;;;;8.97;2.40;;;12.50;99.90;;;;;;5034302;28;20248;-86
2022/11/09 00:41:48;;;;;;;9.13;2.60;;;12.50;99.90;;;;;;5034476;28;20215;-87
2022/11/09 00:44:15;;;;;;;11.77;2.57;;;12.50;99.90;;;;;;5035050;28;20206;-88
2022/11/09 00:46:42;;;;;;;10.17;2.87;;;12.40;99.90;;;;;;5038188;28;20202;-87
2022/11/09 00:49:08;;;;;;;7.90;2.10;;;12.40;99.90;;;;;;5037800;28;20205;-86
2022/11/09 00:51:35;;;;;;;9.93;2.37;;;12.40;99.90;;;;;;5037248;28;20222;-84
2022/11/09 00:54:02;;;;;;;10.90;2.37;;;12.40;99.90;;;;;;5036985;28;20207;-86
2022/11/09 00:56:30;;;;;;;13.37;3.13;;;12.40;99.90;;;;;;5038290;28;20277;-86
2022/11/09 00:58:57;;;;;;;11.43;2.63;;;12.40;99.90;;;;;;5037391;28;20270;-85
2022/11/09 01:01:25;;;;;;;7.83;2.37;;;12.30;99.90;;;;;;5037706;28;20257;-87
2022/11/09 01:03:52;;;;;;;9.57;2.60;;;12.30;99.90;;;;;;5038335;28;20490;-86
2022/11/09 01:06:21;;;;;;;8.63;2.67;;;12.30;99.90;;;;;;5037655;28;20198;-86
2022/11/09 01:08:48;;;;;;;7.93;2.47;;;12.40;99.90;;;;;;5019795;28;20211;-86
2022/11/09 01:11:16;;;;;;;9.53;2.23;;;12.30;99.90;;;;;;5037180;28;20206;-86
2022/11/09 01:13:45;;;;;;;7.27;2.90;;;12.30;99.90;;;;;;5037657;28;20202;-86
2022/11/09 01:16:14;;;;;;;11.07;2.97;;;12.30;99.90;;;;;;5037323;28;20206;-86
2022/11/09 01:18:41;;;;;;;8.73;2.63;;;12.30;99.90;;;;;;5036415;28;20210;-87
2022/11/09 01:21:11;;;;;;;10.90;2.67;;;12.30;99.90;;;;;;5035233;28;20230;-86
2022/11/09 01:23:38;;;;;;;9.67;2.83;;;12.30;99.90;;;;;;5037436;28;20213;-85
2022/11/09 01:26:08;;;;;;;8.60;2.07;;;12.20;99.90;;;;;;5033292;28;20212;-84
2022/11/09 01:28:35;;;;;;;8.73;2.57;;;12.20;99.90;;;;;;5037257;28;20209;-83
2022/11/09 01:31:05;;;;;;;15.57;3.20;;;12.20;99.90;;;;;;5036038;28;20209;-85
2022/11/09 01:33:32;;;;;;;13.07;2.70;;;12.20;99.90;;;;;;5034065;28;20206;-83
2022/11/09 01:36:02;;;;;;;14.20;2.83;;;12.20;99.90;;;;;;5025663;28;20198;-84
2022/11/09 01:38:29;;;;;;;8.77;2.40;;;12.20;99.90;;;;;;5036886;28;20209;-83
2022/11/09 01:40:56;;;;;;;9.73;3.00;;;12.20;99.90;;;;;;5035608;28;20225;-83
2022/11/09 01:43:24;;;;;;;11.10;2.33;;;12.20;99.90;;;;;;5033273;28;20218;-84
2022/11/09 01:45:55;;;;;;;8.07;2.63;;;12.20;99.90;;;;;;5016698;28;20207;-87
2022/11/09 01:48:32;;;;;;;9.83;2.40;;;12.20;99.90;;;;;;5017444;28;20204;-86
2022/11/09 01:51:03;;;;;;;9.13;2.20;;;12.20;99.90;;;;;;5016580;28;20215;-84
2022/11/09 01:53:34;;;;;;;9.53;2.30;;;12.20;99.90;;;;;;5020707;28;20640;-84
2022/11/09 01:56:03;;;;;;;9.37;2.93;;;12.20;99.90;;;;;;5016269;28;20222;-85
2022/11/09 01:58:33;;;;;;;10.73;2.43;;;12.20;99.90;;;;;;5016860;28;20203;-83
2022/11/09 02:01:01;;;;;;;17.77;3.30;;;12.20;99.90;;;;;;5017088;28;20544;-86
2022/11/09 02:03:32;;;;;;;13.77;3.27;;;12.20;99.90;;;;;;5028737;28;20211;-85
2022/11/09 02:06:01;;;;;;;11.63;3.17;;;12.20;99.90;;;;;;5036368;28;20237;-84
2022/11/09 02:08:28;;;;;;;13.50;3.13;;;12.20;99.90;;;;;;5035576;28;20210;-86
2022/11/09 02:11:03;;;;;;;14.93;3.17;;;12.30;99.90;;;;;;5036552;28;20639;-83
2022/11/09 02:13:31;;;;;;;14.93;3.00;;;12.30;99.90;;;;;;5050652;22;20237;-87
2022/11/09 02:15:59;;;;;;;9.33;3.07;;;12.30;99.90;;;;;;5056280;28;20206;-83
2022/11/09 02:18:26;;;;;;;8.87;2.90;;;12.30;99.90;;;;;;5049901;28;20194;-84
2022/11/09 02:20:56;;;;;;;12.07;3.07;;;12.30;99.90;;;;;;5035605;28;20526;-83
2022/11/09 02:23:25;;;;;;;11.70;3.90;;;12.30;99.90;;;;;;5035683;28;20206;-83
2022/11/09 02:25:56;;;;;;;19.67;4.10;;;12.30;99.90;;;;;;5035880;28;20594;-84
2022/11/09 02:28:24;;;;;;;16.53;4.27;;;12.30;99.90;;;;;;5036108;28;20195;-84
2022/11/09 02:30:54;;;;;;;17.83;3.60;;;12.30;99.90;;;;;;5035150;28;20603;-85
2022/11/09 02:33:21;;;;;;;13.30;3.07;;;12.40;99.90;;;;;;5036007;28;20199;-84
2022/11/09 02:35:48;;;;;;;16.20;3.63;;;12.40;99.90;;;;;;5036240;28;20206;-83
2022/11/09 02:38:16;;;;;;;20.70;3.70;;;12.40;99.90;;;;;;5035756;28;20198;-84
2022/11/09 02:40:47;;;;;;;13.17;3.30;;;12.40;99.90;;;;;;5035463;28;20222;-84
2022/11/09 02:43:15;;;;;;;19.43;4.20;;;12.50;99.90;;;;;;5043458;28;20220;-85
2022/11/09 02:45:42;;;;;;;13.70;3.20;;;12.50;99.90;;;;;;5055810;28;20654;-86
2022/11/09 02:48:09;;;;;;;15.93;3.33;;;12.50;99.90;;;;;;5053574;28;20206;-85
2022/11/09 02:50:36;;;;;;;19.93;4.07;;;12.60;99.90;;;;;;5035010;28;20229;-85
2022/11/09 02:53:04;;;;;;;18.00;3.37;;;12.60;99.90;;;;;;5034375;28;20195;-83
2022/11/09 02:55:32;;;;;;;25.57;4.13;;;12.50;99.90;;;;;;5052676;28;20212;-84
2022/11/09 02:57:59;;;;;;;13.70;3.27;;;12.50;99.90;;;;;;5057661;28;20212;-85
2022/11/09 03:00:26;;;;;;;17.93;3.77;;;12.50;99.90;;;;;;5051794;28;20223;-86
2022/11/09 03:02:52;;;;;;;15.20;3.27;;;12.50;99.90;;;;;;5035485;28;20198;-84
2022/11/09 03:05:19;;;;;;;20.40;3.37;;;12.50;99.90;;;;;;5035647;28;20206;-85
2022/11/09 03:07:46;;;;;;;16.57;3.23;;;12.50;99.90;;;;;;5034085;28;20206;-84
2022/11/09 03:10:13;;;;;;;18.07;3.30;;;12.60;99.90;;;;;;5044867;28;20202;-84
2022/11/09 03:12:41;;;;;;;15.77;3.40;;;12.60;99.90;;;;;;5035061;28;20646;-85
2022/11/09 03:15:09;;;;;;;15.30;3.77;;;12.60;99.90;;;;;;5035175;28;20558;-87
2022/11/09 03:17:36;;;;;;;13.27;3.00;;;12.60;99.90;;;;;;5041452;28;20214;-85
2022/11/09 03:20:04;;;;;;;18.60;3.53;;;12.60;99.90;;;;;;5054589;28;20216;-85
2022/11/09 03:22:31;;;;;;;15.47;3.30;;;12.60;99.90;;;;;;5038248;28;20207;-85
2022/11/09 03:24:58;;;;;;;15.90;3.77;;;12.60;99.90;;;;;;5034939;28;20569;-83
2022/11/09 03:27:25;;;;;;;25.80;4.77;;;12.60;99.90;;;;;;5034130;28;20574;-87
2022/11/09 03:29:54;;;;;;;12.13;3.67;;;12.60;99.90;;;;;;5034461;28;20203;-84
2022/11/09 03:32:21;;;;;;;15.27;3.60;;;12.60;99.90;;;;;;5034764;28;20210;-87
2022/11/09 03:34:48;;;;;;;14.50;3.50;;;12.60;99.90;;;;;;5034627;28;20253;-86
2022/11/09 03:37:14;;;;;;;11.73;3.23;;;12.60;99.90;;;;;;5034854;28;20213;-86
2022/11/09 03:39:41;;;;;;;16.70;3.30;;;12.60;99.90;;;;;;5037360;28;20523;-84
2022/11/09 03:42:08;;;;;;;16.40;3.97;;;12.50;99.90;;;;;;5043848;28;20240;-83
2022/11/09 03:44:35;;;;;;;10.77;2.70;;;12.60;99.90;;;;;;5034752;28;20205;-84
2022/11/09 03:47:03;;;;;;;14.40;2.83;;;12.50;99.90;;;;;;5034081;28;20206;-83
2022/11/09 03:49:30;;;;;;;8.37;2.20;;;12.40;99.90;;;;;;5034373;28;20210;-82
2022/11/09 03:51:57;;;;;;;10.30;2.30;;;12.50;99.90;;;;;;5034206;28;20305;-83
2022/11/09 03:54:24;;;;;;;11.57;2.43;;;12.40;99.90;;;;;;5034166;28;20206;-86
2022/11/09 03:56:51;;;;;;;15.27;2.50;;;12.40;99.90;;;;;;5044117;28;20775;-84
2022/11/09 03:59:18;;;;;;;10.67;2.00;;;12.40;99.90;;;;;;5054289;28;20219;-83
2022/11/09 04:01:45;;;;;;;7.97;2.33;;;12.40;99.90;;;;;;5053542;28;20237;-83
2022/11/09 04:04:13;;;;;;;7.77;1.80;;;12.50;99.90;;;;;;5034974;28;20289;-82
2022/11/09 04:06:40;;;;;;;11.80;2.53;;;12.50;99.90;;;;;;5034007;28;20199;-82
2022/11/09 04:09:06;;;;;;;8.03;2.10;;;12.50;99.90;;;;;;5032779;28;20592;-83
2022/11/09 04:11:33;;;;;;;11.23;2.20;;;12.50;99.90;;;;;;5033864;28;20294;-84
2022/11/09 04:14:00;;;;;;;13.03;2.70;;;12.60;99.90;;;;;;5033567;28;20232;-83
2022/11/09 04:16:27;;;;;;;12.80;2.47;;;12.50;99.90;;;;;;5033448;28;20613;-83
2022/11/09 04:18:54;;;;;;;12.43;3.47;;;12.60;99.90;;;;;;5033949;28;20214;-84
2022/11/09 04:21:22;;;;;;;15.37;4.10;;;12.60;99.90;;;;;;5050600;28;20232;-84
2022/11/09 04:23:49;;;;;;;10.63;2.83;;;12.60;99.90;;;;;;5053234;28;20620;-83
2022/11/09 04:26:16;;;;;;;12.67;2.50;;;12.60;99.90;;;;;;5058387;28;20209;-84
2022/11/09 04:28:43;;;;;;;12.37;3.03;;;12.50;99.90;;;;;;5057557;28;20198;-86
2022/11/09 04:31:10;;;;;;;14.57;3.37;;;12.50;99.90;;;;;;5056111;28;20204;-85
2022/11/09 04:33:37;;;;;;;13.80;2.93;;;12.50;99.90;;;;;;5055470;28;20209;-85
2022/11/09 04:36:04;;;;;;;10.03;3.00;;;12.50;99.90;;;;;;5044424;28;20598;-84
2022/11/09 04:38:33;;;;;;;11.40;3.00;;;12.40;99.90;;;;;;5034977;28;20559;-85
2022/11/09 04:41:03;;;;;;;13.63;3.00;;;12.40;99.90;;;;;;5034110;28;20242;-84
2022/11/09 04:43:30;;;;;;;18.07;3.20;;;12.40;99.90;;;;;;5034506;28;20278;-84
2022/11/09 04:46:00;;;;;;;10.10;2.27;;;12.30;99.90;;;;;;5034907;28;20202;-84
2022/11/09 04:48:28;;;;;;;19.40;2.90;;;12.30;99.90;;;;;;5034460;28;20214;-84
2022/11/09 04:51:01;;;;;;;9.30;1.90;;;12.30;99.90;;;;;;5033307;28;20297;-83
2022/11/09 04:53:28;;;;;;;8.73;2.17;;;12.30;99.90;;;;;;5033942;28;20211;-83
2022/11/09 04:55:57;;;;;;;10.13;2.60;;;12.20;99.90;;;;;;5033229;28;20651;-85
2022/11/09 04:58:24;;;;;;;11.60;2.60;;;12.20;99.90;;;;;;5034365;28;20321;-84
2022/11/09 05:00:51;;;;;;;13.13;2.67;;;12.20;99.90;;;;;;5033578;28;20539;-85
2022/11/09 05:03:18;;;;;;;13.63;3.00;;;12.20;99.90;;;;;;5033678;28;20195;-83
2022/11/09 05:05:45;;;;;;;12.27;2.23;;;12.20;99.90;;;;;;5033306;28;20210;-83
2022/11/09 05:08:12;;;;;;;19.47;3.40;;;12.20;99.90;;;;;;5033690;28;20201;-84
2022/11/09 05:10:39;;;;;;;10.57;3.33;;;12.10;99.90;;;;;;5033941;28;20206;-85
2022/11/09 05:13:10;;;;;;;12.23;3.57;;;12.10;99.90;;;;;;5033449;28;20238;-85
2022/11/09 05:15:37;;;;;;;8.27;2.60;;;12.10;99.90;;;;;;5033523;28;20596;-84
2022/11/09 05:18:05;;;;;;;9.97;2.80;;;12.10;99.90;;;;;;5033510;28;20199;-82
2022/11/09 05:20:32;;;;;;;16.70;2.50;;;12.00;99.90;;;;;;5034150;28;20199;-82
2022/11/09 05:25:44;;;;;;;8.90;2.43;;;12.00;99.90;;;;;;5033213;28;20586;-82
2022/11/09 05:28:13;;;;;;;11.37;2.77;;;11.90;99.90;;;;;;5033396;28;20225;-82
2022/11/09 05:30:40;;;;;;;9.70;2.23;;;11.90;99.90;;;;;;5034148;28;20202;-82
2022/11/09 05:33:07;;;;;;;11.67;2.70;;;11.90;99.90;;;;;;5036078;28;20503;-81
2022/11/09 05:35:34;;;;;;;12.20;2.57;;;11.80;99.90;;;;;;5036780;28;20213;-82
2022/11/09 05:38:01;;;;;;;8.67;2.07;;;11.80;99.90;;;;;;5037453;28;20198;-84
2022/11/09 05:40:28;;;;;;;8.63;2.50;;;11.80;99.90;;;;;;5036728;28;20206;-83
2022/11/09 05:42:55;;;;;;;9.87;2.00;;;11.80;99.90;;;;;;5036789;28;20219;-85
2022/11/09 05:45:24;;;;;;;9.70;2.80;;;11.80;99.90;;;;;;5037076;28;20201;-81
2022/11/09 05:47:52;;;;;;;6.63;2.50;;;11.80;99.90;;;;;;5036486;28;20206;-83
2022/11/09 05:50:19;;;;;;;8.37;2.23;;;11.80;99.90;;;;;;5036474;28;20206;-83
2022/11/09 05:52:46;;;;;;;8.87;2.40;;;11.70;99.90;;;;;;5036675;28;20199;-85
2022/11/09 05:55:12;;;;;;;10.47;2.20;;;11.80;99.90;;;;;;5034634;28;20261;-83
2022/11/09 05:57:39;;;;;;;7.17;2.33;;;11.70;99.90;;;;;;5036180;28;20199;-83
2022/11/09 06:00:07;;;;;;;10.90;2.93;;;11.80;99.90;;;;;;5036529;28;20205;-84
2022/11/09 06:02:36;;;;;;;6.80;2.37;;;11.70;99.90;;;;;;5036060;28;20741;-84
2022/11/09 06:05:03;;;;;;;14.87;3.27;;;11.70;99.90;;;;;;5036926;28;20221;-83
2022/11/09 06:07:30;;;;;;;9.43;2.80;;;11.70;99.90;;;;;;5035914;28;20633;-84
2022/11/09 06:09:56;;;;;;;10.17;2.70;;;11.70;99.90;;;;;;5036458;28;20211;-83
2022/11/09 06:12:23;;;;;;;15.33;3.20;;;11.70;99.90;;;;;;5036169;28;20245;-84
2022/11/09 06:14:50;;;;;;;10.83;3.00;;;11.70;99.90;;;;;;5036016;28;20206;-83
2022/11/09 06:17:17;;;;;;;7.37;2.37;;;11.60;99.90;;;;;;5036820;28;20199;-84
2022/11/09 06:19:46;;;;;;;10.77;2.53;;;11.60;99.90;;;;;;5036005;28;20210;-84
2022/11/09 06:22:13;;;;;;;8.20;2.57;;;11.60;99.90;;;;;;5036280;28;20219;-85
2022/11/09 06:24:40;;;;;;;10.60;2.70;;;11.60;99.90;;;;;;5036078;28;20206;-84
2022/11/09 06:27:06;;;;;;;11.83;2.57;;;11.60;99.90;;;;;;5036158;28;20206;-83
2022/11/09 06:29:33;;;;;;;9.63;2.67;;;11.60;99.90;;;;;;5035487;28;20595;-84
2022/11/09 06:32:00;;;;;;;10.83;3.20;;;11.60;99.90;;;;;;5036562;28;20210;-85
2022/11/09 06:34:29;;;;;;;8.53;2.50;;;11.60;99.90;;;;;;5036343;28;20209;-86
2022/11/09 06:36:57;;;;;;;11.00;2.80;;;11.50;99.90;;;;;;5035713;28;20206;-83
2022/11/09 06:39:24;;;;;;;8.87;2.50;;;11.50;99.90;;;;;;5039475;28;20213;-84
2022/11/09 06:41:51;;;;;;;10.60;2.70;;;11.50;99.90;;;;;;5053410;28;20687;-84
2022/11/09 06:44:17;;;;;;;12.30;2.90;;;11.50;99.90;;;;;;5055496;28;20237;-82
2022/11/09 06:46:44;;;;;;;10.23;2.57;;;11.50;99.90;;;;;;5047552;28;20510;-85
2022/11/09 06:49:11;;;;;;;9.43;2.60;;;11.50;99.90;;;;;;5035431;28;20199;-83
2022/11/09 06:51:38;;;;;;;7.23;2.50;;;11.50;99.90;;;;;;5034697;28;20225;-84
2022/11/09 06:54:06;;;;;;;6.73;2.23;;;11.40;99.90;;;;;;5035770;28;20202;-85
2022/11/09 06:56:33;;;;;;;10.80;3.37;;;11.40;99.90;;;;;;5035243;28;20230;-83
2022/11/09 06:59:00;;;;;;;7.87;2.40;;;11.40;99.90;;;;;;5034575;28;20614;-85
2022/11/09 07:01:28;;;;;;;9.87;2.63;;;11.50;99.90;;;;;;5035154;28;20219;-83
2022/11/09 07:03:55;;;;;;;5.77;2.10;;;11.50;99.90;;;;;;5035334;28;20202;-84
2022/11/09 07:06:22;;;;;;;12.60;2.60;;;11.50;99.90;;;;;;5047922;28;20209;-83
2022/11/09 07:08:49;;;;;;;13.73;2.43;;;11.60;99.90;;;;;;5041073;28;20210;-82
2022/11/09 07:11:18;;;;;;;5.63;1.93;;;11.50;99.90;;;;;;5034530;28;20209;-82
2022/11/09 07:13:47;;;;;;;11.93;2.73;;;11.50;99.90;;;;;;5034707;28;20238;-83
2022/11/09 07:16:16;;;;;;;11.53;2.67;;;11.50;99.90;;;;;;5044290;28;20225;-82
2022/11/09 07:18:44;;;;;;;12.97;2.50;;;11.50;99.90;;;;;;5054313;28;20622;-83
2022/11/09 07:21:12;;;;;;;12.47;2.73;;;11.60;99.90;;;;;;5054091;28;20204;-82
2022/11/09 07:23:39;;;;;;;8.17;2.40;;;11.50;99.90;;;;;;5039175;28;20210;-82
2022/11/09 07:26:06;;;;;;;9.40;2.53;;;11.50;99.90;;;;;;5032128;28;20289;-83
2022/11/09 07:28:35;;;;;;;11.40;2.90;;;11.50;99.90;;;;;;5034202;28;20203;-82
2022/11/09 07:31:01;;;;;;;11.00;2.87;;;11.50;99.90;;;;;;5049303;28;20633;-83
2022/11/09 07:33:32;;;;;;;8.17;2.30;;;11.50;99.90;;;;;;5054269;28;20190;-85
2022/11/09 07:35:59;;;;;;;10.63;2.67;;;11.50;99.90;;;;;;5045728;28;20206;-83
2022/11/09 07:38:26;;;;;;;12.33;2.80;;;11.50;99.90;;;;;;5034388;28;20195;-84
2022/11/09 07:40:53;;;;;;;10.67;2.47;;;11.50;99.90;;;;;;5035110;28;20208;-82
2022/11/09 07:43:20;;;;;;;8.40;3.23;;;11.50;99.90;;;;;;5034211;28;20229;-83
2022/11/09 07:45:48;;;;;;;10.57;2.93;;;11.50;99.90;;;;;;5034155;28;20484;-80
2022/11/09 07:48:15;;;;;;;7.77;2.03;;;11.50;99.90;;;;;;5034484;28;20195;-82
2022/11/09 07:50:42;;;;;;;7.80;2.07;;;11.50;99.90;;;;;;5033754;28;20226;-83
2022/11/09 07:53:13;;;;;;;11.50;2.53;;;11.50;99.90;;;;;;5034021;28;20198;-82
2022/11/09 07:55:40;;;;;;;9.47;2.47;;;11.60;99.90;;;;;;5037147;28;20797;-84
2022/11/09 07:58:09;;;;;;;8.37;2.10;;;11.60;99.90;;;;;;5047635;28;20222;-80
2022/11/09 08:00:38;;;;;;;8.87;2.30;;;11.60;99.90;;;;;;5053497;28;20202;-83
2022/11/09 08:03:06;;;;;;;6.67;2.27;;;11.60;99.90;;;;;;5053254;28;20243;-84
2022/11/09 08:05:33;;;;;;;9.27;2.60;;;11.60;99.90;;;;;;5053742;28;20205;-82
2022/11/09 08:08:02;;;;;;;7.03;2.30;;;11.60;99.90;;;;;;5053051;28;20606;-84
2022/11/09 08:10:31;;;;;;;6.07;2.63;;;11.60;99.90;;;;;;5038463;28;20210;-84
2022/11/09 08:13:00;;;;;;;10.93;2.47;;;11.70;99.90;;;;;;5034341;28;20237;-85
2022/11/09 08:15:28;;;;;;;8.90;2.43;;;11.70;99.90;;;;;;5044463;28;20201;-82
2022/11/09 08:17:58;;;;;;;7.20;2.40;;;11.80;99.90;;;;;;5033905;28;20202;-84
2022/11/09 08:20:26;;;;;;;10.47;2.53;;;11.80;99.90;;;;;;5051658;28;20194;-84
2022/11/09 08:23:00;;;;;;;10.77;2.87;;;11.80;99.90;;;;;;5048216;28;20234;-84
2022/11/09 08:25:26;;;;;;;13.60;3.17;;;11.80;99.90;;;;;;5040356;28;20227;-84
2022/11/09 08:27:55;;;;;;;8.40;2.87;;;11.90;99.90;;;;;;5040105;28;20482;-84
2022/11/09 08:30:23;;;;;;;12.50;3.13;;;11.90;99.90;;;;;;5036753;28;20312;-84
2022/11/09 08:32:50;;;;;;;10.10;2.63;;;11.90;99.90;;;;;;5032924;28;20517;-83
2022/11/09 08:35:19;;;;;;;12.97;3.07;;;12.00;99.90;;;;;;5032728;28;20634;-82
2022/11/09 08:37:49;;;;;;;8.93;2.63;;;12.10;99.90;;;;;;5034629;28;20203;-84
2022/11/09 08:40:18;;;;;;;11.70;3.40;;;12.10;99.90;;;;;;5042748;28;20207;-85
2022/11/09 08:42:51;;;;;;;7.83;2.87;;;12.10;99.90;;;;;;5051078;28;20224;-83
2022/11/09 08:45:19;;;;;;;9.93;2.80;;;12.20;99.90;;;;;;5043114;28;20710;-83
2022/11/09 08:47:46;;;;;;;10.53;2.93;;;12.20;99.90;;;;;;5033022;28;20202;-83
2022/11/09 08:50:14;;;;;;;9.13;2.57;;;12.20;99.90;;;;;;5032536;28;20217;-83
2022/11/09 08:52:41;;;;;;;10.77;2.90;;;12.20;99.90;;;;;;5033499;28;20290;-81
2022/11/09 08:55:10;;;;;;;9.23;2.67;;;12.30;99.90;;;;;;5034121;28;20498;-83
2022/11/09 08:57:37;;;;;;;9.93;2.70;;;12.30;99.90;;;;;;5032380;28;20206;-83
2022/11/09 09:00:05;;;;;;;10.87;2.97;;;12.40;99.90;;;;;;5033203;28;20297;-84
2022/11/09 09:02:32;;;;;;;11.83;2.67;;;12.40;99.90;;;;;;5033287;28;20313;-84
2022/11/09 09:04:59;;;;;;;9.90;2.67;;;12.40;99.90;;;;;;5032808;28;20206;-83
2022/11/09 09:07:26;;;;;;;9.63;2.50;;;12.50;99.90;;;;;;5036247;28;20221;-85
2022/11/09 09:09:54;;;;;;;11.90;2.43;;;12.50;99.90;;;;;;5037527;28;20215;-81
2022/11/09 09:12:22;;;;;;;6.10;2.10;;;12.60;99.90;;;;;;5036891;28;20242;-82
2022/11/09 09:14:49;;;;;;;9.03;2.43;;;12.60;99.90;;;;;;5036293;28;20203;-83
2022/11/09 09:17:16;;;;;;;8.13;2.90;;;12.60;99.90;;;;;;5044777;28;20213;-82
2022/11/09 09:19:43;;;;;;;11.87;3.10;;;12.70;99.90;;;;;;5036720;28;20206;-84
2022/11/09 09:22:10;;;;;;;10.33;3.10;;;12.80;99.90;;;;;;5036622;28;20226;-83
2022/11/09 09:24:37;;;;;;;12.03;3.27;;;12.80;99.90;;;;;;5035799;28;20507;-82
2022/11/09 09:27:04;;;;;;;10.30;3.40;;;12.90;99.90;;;;;;5036061;28;20203;-82
2022/11/09 09:29:32;;;;;;;10.20;3.13;;;12.90;99.90;;;;;;5035908;28;20212;-82
2022/11/09 09:31:59;;;;;;;12.83;3.20;;;13.00;99.90;;;;;;5035753;28;20214;-81
2022/11/09 09:34:26;;;;;;;14.30;3.53;;;13.10;99.90;;;;;;5036166;28;20503;-84
2022/11/09 09:36:53;;;;;;;15.47;3.73;;;13.10;99.90;;;;;;5036345;28;20210;-82
2022/11/09 09:39:20;;;;;;;15.10;3.37;;;13.20;99.90;;;;;;5036169;28;20209;-81
2022/11/09 09:41:53;;;;;;;13.60;2.87;;;13.40;99.90;;;;;;5035882;28;20293;-82
2022/11/09 09:44:29;;;;;;;9.93;3.00;;;13.40;99.90;;;;;;5036524;28;20297;-85
2022/11/09 09:47:05;;;;;;;17.73;4.47;;;13.60;99.90;;;;;;5036517;28;20198;-87
2022/11/09 09:49:34;;;;;;;10.13;3.30;;;13.70;99.90;;;;;;5037253;28;20528;-89
2022/11/09 09:52:11;;;;;;;17.97;3.90;;;13.80;99.90;;;;;;5036768;28;20710;-86
2022/11/09 09:54:43;;;;;;;9.60;3.03;;;13.80;99.90;;;;;;5037015;28;20199;-88
2022/11/09 09:57:16;;;;;;;12.90;3.37;;;13.80;99.90;;;;;;5037114;28;20195;-86
2022/11/09 09:59:46;;;;;;;12.60;3.67;;;13.80;99.90;;;;;;5036454;28;20286;-86
2022/11/09 10:02:22;;;;;;;14.40;3.27;;;13.80;99.90;;;;;;5037039;28;20281;-88
2022/11/09 10:04:49;;;;;;;11.33;3.57;;;13.70;99.90;;;;;;5036834;28;20194;-88
2022/11/09 10:07:23;;;;;;;12.37;3.27;;;13.70;99.90;;;;;;5037691;28;20209;-85
2022/11/09 10:10:14;;;;;;;7.33;2.80;;;13.60;99.90;;;;;;5056094;28;20190;-89
2022/11/09 10:12:54;;;;;;;19.03;3.60;;;13.60;99.90;;;;;;5037254;28;20237;-87
2022/11/09 10:15:27;;;;;;;12.27;2.73;;;13.40;99.90;;;;;;5035204;28;20209;-84
2022/11/09 10:18:14;;;;;;;11.23;2.57;;;13.30;99.90;;;;;;5035549;28;20198;-85
2022/11/09 10:20:55;;;;;;;7.27;2.10;;;13.20;99.90;;;;;;5035449;28;20546;-85
2022/11/09 10:23:38;;;;;;;6.00;1.43;;;13.00;99.90;;;;;;5035951;28;20329;-84
2022/11/09 10:26:14;;;;;;;6.33;1.20;;;12.90;99.90;;;;;;5035976;28;20285;-88
2022/11/09 10:28:43;;;;;;;4.47;1.63;;;12.80;99.90;;;;;;5035065;28;20674;-88
2022/11/09 10:31:16;;;;;;;7.27;1.90;;;12.70;99.90;;;;;;5035514;28;20256;-86
2022/11/09 10:33:47;;;;;;;7.57;1.97;;;12.60;99.90;;;;;;5045012;28;20592;-85
2022/11/09 10:36:22;;;;;;;12.60;2.93;;;12.60;99.90;;;;;;5054256;28;20190;-82
2022/11/09 10:38:51;;;;;;;5.77;1.80;;;12.50;99.90;;;;;;5055051;28;20194;-90
2022/11/09 10:41:27;;;;;;;9.77;1.93;;;12.50;99.90;;;;;;5055362;28;20217;-88
2022/11/09 10:43:54;;;;;;;7.37;1.50;;;12.40;99.90;;;;;;5035380;28;20218;-84
2022/11/09 10:46:21;;;;;;;5.53;1.70;;;12.40;99.90;;;;;;5034680;28;20206;-83
2022/11/09 10:48:49;;;;;;;7.10;2.10;;;12.40;99.90;;;;;;5034494;28;20211;-84
2022/11/09 10:51:33;;;;;;;8.73;2.20;;;12.40;99.90;;;;;;5043872;28;20230;-83
2022/11/09 10:54:20;;;;;;;6.43;1.83;;;12.40;99.90;;;;;;5055081;28;20186;-87
2022/11/09 10:56:49;;;;;;;10.67;1.57;;;12.30;99.90;;;;;;5047332;28;20238;-92
2022/11/09 10:59:40;;;;;;;5.80;1.37;;;12.30;99.90;;;;;;5035620;28;20213;-85
2022/11/09 11:02:42;;;;;;;7.03;1.50;;;12.20;99.90;;;;;;5030641;28;20195;-87
2022/11/09 11:05:33;;;;;;;12.73;2.77;;;12.10;99.90;;;;;;5034634;28;20202;-82
2022/11/09 11:08:27;;;;;;;12.70;2.13;;;12.10;99.90;;;;;;5034632;28;20209;-85
2022/11/09 11:11:23;;;;;;;10.03;2.53;;;12.00;99.90;;;;;;5035547;28;20206;-87
2022/11/09 11:13:53;;;;;;;11.93;2.53;;;12.00;99.90;;;;;;5034635;28;20230;-83
2022/11/09 11:16:27;;;;;;;12.77;2.60;;;12.00;99.90;;;;;;5035128;28;20277;-89
2022/11/09 11:18:54;;;;;;;17.33;2.90;;;12.10;99.90;;;;;;5043380;28;20205;-85
2022/11/09 11:21:24;;;;;;;24.90;5.87;;;12.20;99.90;;;;;;5054778;28;20206;-90
2022/11/09 11:24:12;;;;;;;14.17;2.90;;;12.20;99.90;;;;;;5050810;28;20227;-83
2022/11/09 11:26:47;;;;;;;18.33;3.60;;;12.20;99.90;;;;;;5035027;28;20297;-86
2022/11/09 11:29:38;;;;;;;16.20;3.33;;;12.20;99.90;;;;;;5033939;28;20217;-90
2022/11/09 11:32:10;;;;;;;18.57;3.50;;;12.30;99.90;;;;;;5035105;28;20270;-86
2022/11/09 11:34:39;;;;;;;20.70;3.90;;;12.40;99.90;;;;;;5054490;28;20265;-88
2022/11/09 11:37:36;;;;;;;11.83;2.63;;;12.40;99.90;;;;;;5054577;28;20221;-91
2022/11/09 11:40:07;;;;;;;10.17;3.67;;;12.40;99.90;;;;;;5054795;28;20206;-94
2022/11/09 11:42:44;;;;;;;16.77;3.20;;;12.40;99.90;;;;;;5047405;28;20201;-87
2022/11/09 11:45:20;;;;;;;14.83;2.90;;;12.40;99.90;;;;;;5034640;28;20234;-88
2022/11/09 11:48:01;;;;;;;10.93;2.73;;;12.40;99.90;;;;;;5034881;28;20263;-83
2022/11/09 11:50:38;;;;;;;12.50;3.60;;;12.40;99.90;;;;;;5053099;28;20229;-92
2022/11/09 11:53:17;;;;;;;17.13;3.77;;;12.50;99.90;;;;;;5054663;28;20190;-85
2022/11/09 11:56:12;;;;;;;12.33;3.10;;;12.60;99.90;;;;;;5035003;28;20611;-92
2022/11/09 11:59:09;;;;;;;10.50;2.73;;;12.70;99.90;;;;;;5034970;28;20190;-89
2022/11/09 12:01:49;;;;;;;12.93;3.23;;;12.80;99.90;;;;;;5034867;28;20205;-89
2022/11/09 12:04:40;;;;;;;9.20;2.43;;;12.90;99.90;;;;;;5044240;28;20225;-88
2022/11/09 12:07:17;;;;;;;9.60;2.87;;;13.00;99.90;;;;;;5053082;28;20198;-91
2022/11/09 12:10:01;;;;;;;12.57;2.57;;;13.10;99.90;;;;;;5041074;28;20204;-86
2022/11/09 12:12:40;;;;;;;16.77;2.70;;;13.20;99.90;;;;;;5034829;28;20243;-93
2022/11/09 12:15:23;;;;;;;12.93;2.67;;;13.20;99.90;;;;;;5034480;28;20538;-87
2022/11/09 12:17:59;;;;;;;13.57;2.67;;;13.20;99.90;;;;;;5034439;28;20286;-82
2022/11/09 12:20:32;;;;;;;7.90;2.10;;;13.20;99.90;;;;;;5032667;28;20260;-82
2022/11/09 12:23:17;;;;;;;8.60;2.47;;;13.20;99.90;;;;;;5033180;28;20295;-82
2022/11/09 12:25:53;;;;;;;8.20;2.10;;;13.20;99.90;;;;;;5032867;28;20282;-82
2022/11/09 12:28:49;;;;;;;11.43;2.93;;;13.10;99.90;;;;;;5033186;28;20209;-90
2022/11/09 12:31:30;;;;;;;10.70;2.17;;;13.10;99.90;;;;;;5038861;28;20194;-87
2022/11/09 12:34:01;;;;;;;14.47;2.33;;;13.00;99.90;;;;;;5053731;28;20194;-81
2022/11/09 12:36:35;;;;;;;12.20;2.60;;;12.90;99.90;;;;;;5033757;28;20209;-84
2022/11/09 12:39:10;;;;;;;11.53;2.00;;;12.90;99.90;;;;;;5033025;28;20202;-85
2022/11/09 12:41:39;;;;;;;9.77;2.37;;;12.80;99.90;;;;;;5035590;28;20186;-82
2022/11/09 12:44:13;;;;;;;12.30;2.67;;;12.80;99.90;;;;;;5035908;28;20248;-84
2022/11/09 12:46:46;;;;;;;6.13;2.40;;;12.80;99.90;;;;;;5037460;28;20190;-82
2022/11/09 12:49:27;;;;;;;12.63;2.57;;;12.80;99.90;;;;;;5036201;28;20871;-84
2022/11/09 12:51:54;;;;;;;9.27;2.57;;;12.80;99.90;;;;;;5036906;28;20313;-81
2022/11/09 12:54:22;;;;;;;9.60;2.80;;;12.80;99.90;;;;;;5035892;28;20226;-89
2022/11/09 12:56:54;;;;;;;11.60;2.67;;;12.70;99.90;;;;;;5036351;28;20593;-84